Terminal Aerodrome Forecast
Issued by NWS

Home | Current Version | Previous Version | Text Only | Print | Product List | Glossary Off
Versions: 1 2 3 4 5 6 7 8 9 10 11 12 13 14 15 16 17 18 19

000
FTUS43 KGRB 291100
TAFMTW
TAF
KMTW 291122Z 2912/3012 14007KT P6SM VCTS BKN025 OVC035CB
      TEMPO 2912/2916 5SM -SHRA BR OVC012
     FM291600 15006KT 6SM -SHRA BR OVC010
     FM291900 17010G16KT P6SM VCSH SCT020 OVC035
     FM300000 17007KT P6SM VCSH OVC025
     FM300400 16004KT 4SM SHRA BR OVC015=

USA.gov is the U.S. government's official web portal to all federal, state and local government web resources and services.